Time;durP1;ratioP1;P1;durP2;ratioP2;P2;SDS_P1;SDS_P2;PMS_P1;PMS_P2;Temp;Humidity;BMP_temperature;BMP_pressure;BME280_temperature;BME280_humidity;BME280_pressure;Samples;Min_cycle;Max_cycle;Signal;HPM_P1;HPM_P2
2021/11/13 00:00:40;;;;;;;28.77;24.40;;;8.30;99.90;;;;;;5050066;28;20040;-58
2021/11/13 00:03:07;;;;;;;35.55;25.23;;;8.40;99.90;;;;;;5034252;28;20504;-57
2021/11/13 00:05:34;;;;;;;31.45;25.42;;;8.30;99.90;;;;;;5030153;28;20102;-58
2021/11/13 00:08:02;;;;;;;33.13;24.98;;;8.30;99.90;;;;;;5030198;28;20036;-48
2021/11/13 00:10:29;;;;;;;28.65;25.02;;;8.30;99.90;;;;;;5030225;28;20362;-46
2021/11/13 00:12:56;;;;;;;31.58;25.17;;;8.30;99.90;;;;;;5028821;28;20057;-59
2021/11/13 00:15:24;;;;;;;29.90;24.45;;;8.40;99.90;;;;;;5031997;28;20049;-59
2021/11/13 00:17:52;;;;;;;32.03;25.38;;;8.30;99.90;;;;;;5050155;28;20084;-59
2021/11/13 00:20:20;;;;;;;28.70;24.92;;;8.40;99.90;;;;;;5048273;28;20052;-58
2021/11/13 00:22:47;;;;;;;29.30;24.38;;;8.40;99.90;;;;;;5048638;28;20040;-59
2021/11/13 00:25:13;;;;;;;32.17;25.95;;;8.40;99.90;;;;;;5031958;28;20084;-59
2021/11/13 00:27:40;;;;;;;32.00;26.10;;;8.30;99.90;;;;;;5065521;28;20467;-59
2021/11/13 00:30:07;;;;;;;31.85;24.92;;;8.30;99.90;;;;;;5049576;28;20396;-58
2021/11/13 00:32:33;;;;;;;31.83;24.63;;;8.30;99.90;;;;;;5049910;28;20049;-58
2021/11/13 00:34:59;;;;;;;31.13;25.45;;;8.30;99.90;;;;;;5049847;28;20055;-60
2021/11/13 00:37:25;;;;;;;30.52;26.50;;;8.30;99.90;;;;;;5047573;28;20620;-59
2021/11/13 00:39:52;;;;;;;35.42;25.83;;;8.30;99.90;;;;;;5031464;28;20059;-59
2021/11/13 00:42:18;;;;;;;35.60;27.48;;;8.30;99.90;;;;;;5049857;28;20412;-58
2021/11/13 00:44:44;;;;;;;34.63;26.63;;;8.30;99.90;;;;;;5047814;28;20045;-58
2021/11/13 00:47:10;;;;;;;31.67;26.23;;;8.30;99.90;;;;;;5048417;28;20049;-58
2021/11/13 00:49:36;;;;;;;36.33;26.58;;;8.30;99.90;;;;;;5049209;28;20049;-59
2021/11/13 00:52:03;;;;;;;33.10;27.27;;;8.30;99.90;;;;;;5048508;28;20059;-47
2021/11/13 00:54:30;;;;;;;34.45;28.45;;;8.30;99.90;;;;;;5048726;28;20169;-47
2021/11/13 00:56:57;;;;;;;39.92;30.98;;;8.30;99.90;;;;;;5049864;28;20129;-49
2021/11/13 00:59:23;;;;;;;40.25;30.55;;;8.20;99.90;;;;;;5049335;28;20053;-48
2021/11/13 01:01:49;;;;;;;44.33;33.08;;;8.30;99.90;;;;;;5064860;28;20047;-47
2021/11/13 01:04:15;;;;;;;36.40;29.52;;;8.20;99.90;;;;;;5048444;28;20136;-50
2021/11/13 01:06:42;;;;;;;46.70;32.45;;;8.20;99.90;;;;;;5064516;28;20124;-51
2021/11/13 01:09:08;;;;;;;44.47;32.60;;;8.20;99.90;;;;;;5052203;28;20049;-50
2021/11/13 01:11:34;;;;;;;39.95;31.95;;;8.20;99.90;;;;;;5015348;28;20095;-49
2021/11/13 01:14:01;;;;;;;45.55;33.05;;;8.20;99.90;;;;;;5032557;28;20076;-46
2021/11/13 01:16:27;;;;;;;42.80;32.88;;;8.20;99.90;;;;;;5043499;28;20110;-46
2021/11/13 01:18:55;;;;;;;42.83;32.08;;;8.20;99.90;;;;;;5034665;28;20098;-48
2021/11/13 01:21:23;;;;;;;50.30;35.15;;;8.20;99.90;;;;;;5050937;28;20045;-47
2021/11/13 01:23:50;;;;;;;51.50;33.78;;;8.20;99.90;;;;;;5052880;28;20404;-46
2021/11/13 01:26:20;;;;;;;52.67;35.40;;;8.20;99.90;;;;;;5050814;28;20048;-48
2021/11/13 01:28:46;;;;;;;49.88;35.03;;;8.20;99.90;;;;;;5032982;28;20044;-47
2021/11/13 01:31:15;;;;;;;50.33;37.38;;;8.20;99.90;;;;;;5032458;28;20046;-47
2021/11/13 01:33:44;;;;;;;55.85;36.30;;;8.20;99.90;;;;;;5032672;28;20038;-49
2021/11/13 01:36:12;;;;;;;47.10;36.22;;;8.20;99.90;;;;;;5032476;28;20041;-45
2021/11/13 01:38:38;;;;;;;51.08;37.40;;;8.20;99.90;;;;;;5033128;28;20072;-47
2021/11/13 01:41:06;;;;;;;59.67;38.33;;;8.20;99.90;;;;;;5032818;28;20085;-47
2021/11/13 01:43:35;;;;;;;58.85;40.67;;;8.30;99.90;;;;;;5032503;28;20076;-54
2021/11/13 01:46:02;;;;;;;59.00;39.60;;;8.30;99.90;;;;;;5032218;28;20054;-58
2021/11/13 01:48:29;;;;;;;55.80;39.17;;;8.20;99.90;;;;;;5032996;28;20041;-59
2021/11/13 01:50:56;;;;;;;53.70;36.05;;;8.20;99.90;;;;;;5031377;28;20049;-59
2021/11/13 01:53:23;;;;;;;56.58;38.50;;;8.20;99.90;;;;;;5031305;28;20049;-59
2021/11/13 01:55:50;;;;;;;54.67;37.28;;;8.20;99.90;;;;;;5014409;28;20046;-59
2021/11/13 01:58:16;;;;;;;55.60;36.17;;;8.30;99.90;;;;;;5031290;28;20049;-60
2021/11/13 02:00:49;;;;;;;55.00;39.10;;;8.20;99.90;;;;;;5035787;28;20071;-59
2021/11/13 02:03:16;;;;;;;53.97;38.58;;;8.30;99.90;;;;;;5051189;28;20504;-60
2021/11/13 02:05:42;;;;;;;55.42;39.05;;;8.30;99.90;;;;;;5052008;28;20049;-60
2021/11/13 02:08:08;;;;;;;50.75;36.33;;;8.20;99.90;;;;;;5067587;28;20072;-59
2021/11/13 02:10:35;;;;;;;56.85;38.47;;;8.30;99.90;;;;;;5052290;28;20037;-59
2021/11/13 02:13:01;;;;;;;56.58;35.67;;;8.30;99.90;;;;;;5050358;28;20049;-59
2021/11/13 02:15:28;;;;;;;53.55;36.28;;;8.30;99.90;;;;;;5051892;28;20053;-59
2021/11/13 02:17:57;;;;;;;54.58;37.53;;;8.30;99.90;;;;;;5045441;28;20045;-58
2021/11/13 02:20:26;;;;;;;53.47;36.85;;;8.40;99.90;;;;;;5031858;28;20045;-59
2021/11/13 02:22:55;;;;;;;54.20;36.80;;;8.40;99.90;;;;;;5031882;28;20132;-60
2021/11/13 02:25:24;;;;;;;53.85;37.10;;;8.40;99.90;;;;;;5030586;28;20072;-58
2021/11/13 02:27:50;;;;;;;46.20;35.30;;;8.40;99.90;;;;;;5031897;28;20388;-59
2021/11/13 02:30:17;;;;;;;49.47;37.40;;;8.40;99.90;;;;;;5031865;28;20041;-59
2021/11/13 02:32:44;;;;;;;47.85;32.97;;;8.40;99.90;;;;;;5031407;28;20041;-59
2021/11/13 02:35:14;;;;;;;51.08;37.17;;;8.40;99.90;;;;;;5032209;28;20049;-59
2021/11/13 02:37:42;;;;;;;51.88;35.67;;;8.50;99.90;;;;;;5031574;28;20080;-58
2021/11/13 02:40:09;;;;;;;54.90;37.33;;;8.40;99.90;;;;;;5031216;28;20431;-59
2021/11/13 02:42:36;;;;;;;52.58;37.45;;;8.50;99.90;;;;;;5031508;28;20147;-59
2021/11/13 02:45:08;;;;;;;53.33;35.65;;;8.50;99.90;;;;;;5031089;28;20052;-50
2021/11/13 02:47:35;;;;;;;59.45;38.03;;;8.50;99.90;;;;;;5029796;28;20111;-59
2021/11/13 02:50:01;;;;;;;51.83;36.13;;;8.50;99.90;;;;;;5031150;28;20050;-59
2021/11/13 02:52:27;;;;;;;46.42;35.08;;;8.50;99.90;;;;;;5046781;28;20057;-59
2021/11/13 02:54:54;;;;;;;51.55;35.28;;;8.60;99.90;;;;;;5013723;28;20053;-59
2021/11/13 02:57:20;;;;;;;46.90;34.35;;;8.60;99.90;;;;;;5029375;28;20350;-59
2021/11/13 02:59:48;;;;;;;46.10;33.17;;;8.60;99.90;;;;;;5031655;28;20388;-45
2021/11/13 03:02:15;;;;;;;48.42;34.47;;;8.60;99.90;;;;;;5050889;28;20472;-46
2021/11/13 03:04:41;;;;;;;43.08;34.38;;;8.70;99.90;;;;;;5051003;28;20252;-48
2021/11/13 03:07:08;;;;;;;47.85;35.35;;;8.60;99.90;;;;;;5032522;28;20084;-48
2021/11/13 03:09:35;;;;;;;47.65;35.65;;;8.60;99.90;;;;;;5020534;28;20045;-47
2021/11/13 03:12:02;;;;;;;43.53;33.17;;;8.70;99.90;;;;;;5030810;28;20092;-45
2021/11/13 03:14:29;;;;;;;47.65;36.58;;;8.70;99.90;;;;;;5030531;28;20535;-46
2021/11/13 03:17:03;;;;;;;54.42;37.78;;;8.70;99.90;;;;;;5043997;28;20045;-47
2021/11/13 03:19:32;;;;;;;57.20;39.00;;;8.70;99.90;;;;;;5049514;28;20047;-45
2021/11/13 03:21:58;;;;;;;55.75;39.17;;;8.80;99.90;;;;;;5049346;28;20057;-58
2021/11/13 03:24:28;;;;;;;55.67;37.53;;;8.80;99.90;;;;;;5016061;28;20049;-58
2021/11/13 03:26:54;;;;;;;54.28;39.10;;;8.80;99.90;;;;;;5035602;28;20111;-58
2021/11/13 03:29:26;;;;;;;55.60;37.90;;;8.80;99.90;;;;;;5030799;28;20045;-58
2021/11/13 03:31:53;;;;;;;53.67;38.90;;;8.90;99.90;;;;;;5012420;28;20049;-58
2021/11/13 03:34:19;;;;;;;60.58;39.70;;;8.80;99.90;;;;;;5012827;28;20041;-59
2021/11/13 03:36:45;;;;;;;54.13;38.45;;;8.80;99.90;;;;;;5030439;28;20048;-59
2021/11/13 03:39:11;;;;;;;54.95;39.20;;;8.90;99.90;;;;;;4996375;28;20042;-59
2021/11/13 03:41:38;;;;;;;54.13;38.20;;;8.90;99.90;;;;;;5031089;28;20096;-59
2021/11/13 03:44:04;;;;;;;57.75;41.20;;;8.90;99.90;;;;;;5028078;28;20053;-59
2021/11/13 03:46:30;;;;;;;56.33;37.90;;;8.80;99.90;;;;;;5050243;28;20407;-59
2021/11/13 03:48:56;;;;;;;58.05;39.92;;;8.90;99.90;;;;;;5065570;28;20117;-59
2021/11/13 03:51:25;;;;;;;53.20;39.25;;;8.90;99.90;;;;;;5032876;28;20052;-58
2021/11/13 03:53:51;;;;;;;61.58;40.58;;;8.90;99.90;;;;;;5050365;28;20037;-58
2021/11/13 03:56:18;;;;;;;57.10;39.47;;;8.90;99.90;;;;;;5048923;28;20044;-58
2021/11/13 03:58:44;;;;;;;70.60;43.72;;;8.90;99.90;;;;;;5050387;28;20055;-59
2021/11/13 04:01:10;;;;;;;55.75;40.20;;;8.90;99.90;;;;;;5032047;28;20496;-60
2021/11/13 04:03:36;;;;;;;56.08;41.17;;;8.90;99.90;;;;;;5028903;28;20103;-59
2021/11/13 04:06:02;;;;;;;56.72;39.95;;;9.00;99.90;;;;;;5028376;28;20049;-59
2021/11/13 04:08:28;;;;;;;59.13;41.15;;;9.00;99.90;;;;;;5030399;28;20537;-47
2021/11/13 04:10:55;;;;;;;53.20;38.42;;;9.00;99.90;;;;;;5044989;28;20042;-46
2021/11/13 04:13:21;;;;;;;55.10;40.13;;;9.00;99.90;;;;;;5028585;28;20049;-51
2021/11/13 04:15:47;;;;;;;54.97;38.03;;;9.00;99.90;;;;;;5035118;28;20037;-47
2021/11/13 04:18:13;;;;;;;52.47;39.38;;;9.00;99.90;;;;;;5032724;28;20489;-50
2021/11/13 04:20:39;;;;;;;52.03;37.53;;;9.00;99.90;;;;;;5028265;28;20124;-48
2021/11/13 04:23:05;;;;;;;51.45;37.97;;;9.00;99.90;;;;;;5030279;28;20128;-46
2021/11/13 04:25:32;;;;;;;54.17;39.03;;;9.10;99.90;;;;;;5030107;28;20041;-46
2021/11/13 04:27:58;;;;;;;47.90;36.53;;;9.10;99.90;;;;;;5028294;28;20053;-46
2021/11/13 04:30:25;;;;;;;52.33;38.90;;;9.10;99.90;;;;;;5029661;28;20489;-47
2021/11/13 04:32:52;;;;;;;51.88;38.45;;;9.10;99.90;;;;;;5028365;28;20048;-51
2021/11/13 04:35:21;;;;;;;47.03;37.42;;;9.00;99.90;;;;;;5029975;28;20397;-50
2021/11/13 04:37:53;;;;;;;50.70;38.88;;;9.10;99.90;;;;;;5029438;28;20392;-52
2021/11/13 04:40:24;;;;;;;52.78;40.55;;;9.10;99.90;;;;;;5029134;28;20050;-50
2021/11/13 04:42:50;;;;;;;55.55;38.28;;;9.10;99.90;;;;;;5013228;28;20091;-45
2021/11/13 04:45:16;;;;;;;47.78;38.92;;;9.10;99.90;;;;;;5033013;28;20518;-45
2021/11/13 04:47:43;;;;;;;51.00;36.88;;;9.20;99.90;;;;;;5032032;28;20037;-44
2021/11/13 04:50:12;;;;;;;47.70;37.63;;;9.10;99.90;;;;;;5016046;28;20120;-47
2021/11/13 04:52:38;;;;;;;50.40;37.65;;;9.20;99.90;;;;;;5032027;28;20141;-45
2021/11/13 04:55:05;;;;;;;50.85;37.28;;;9.10;99.90;;;;;;5031906;28;20053;-47
2021/11/13 04:57:32;;;;;;;51.92;38.45;;;9.10;99.90;;;;;;5032089;28;20474;-52
2021/11/13 04:59:58;;;;;;;52.13;38.70;;;9.10;99.90;;;;;;5048103;28;20124;-48
2021/11/13 05:02:24;;;;;;;53.05;40.03;;;9.10;99.90;;;;;;5033000;28;20128;-46
2021/11/13 05:04:54;;;;;;;56.72;40.35;;;9.20;99.90;;;;;;5032000;28;20489;-58
2021/11/13 05:07:23;;;;;;;55.70;38.85;;;9.10;99.90;;;;;;5033201;28;20049;-47
2021/11/13 05:09:51;;;;;;;52.97;38.20;;;9.20;99.90;;;;;;5033155;28;20056;-46
2021/11/13 05:12:17;;;;;;;49.88;37.25;;;9.20;99.90;;;;;;5031152;28;20107;-46
2021/11/13 05:14:43;;;;;;;53.00;38.58;;;9.10;99.90;;;;;;5032869;28;20061;-46
2021/11/13 05:17:09;;;;;;;53.15;37.83;;;9.20;99.90;;;;;;5049646;28;20044;-58
2021/11/13 05:19:37;;;;;;;55.80;38.15;;;9.20;99.90;;;;;;5052587;28;20130;-58
2021/11/13 05:22:04;;;;;;;51.25;37.58;;;9.20;99.90;;;;;;5052425;28;20442;-58
2021/11/13 05:24:30;;;;;;;51.50;39.38;;;9.20;99.90;;;;;;5049466;28;20094;-46
2021/11/13 05:26:56;;;;;;;53.38;38.08;;;9.20;99.90;;;;;;5032824;28;20453;-58
2021/11/13 05:29:22;;;;;;;49.58;36.83;;;9.20;99.90;;;;;;5031257;28;20515;-58
2021/11/13 05:31:48;;;;;;;53.05;37.20;;;9.20;99.90;;;;;;5032700;28;20089;-59
2021/11/13 05:34:14;;;;;;;52.28;38.47;;;9.20;99.90;;;;;;5030922;28;20049;-59
2021/11/13 05:36:41;;;;;;;48.28;36.78;;;9.20;99.90;;;;;;5032960;28;20102;-59
2021/11/13 05:39:07;;;;;;;51.45;38.40;;;9.20;99.90;;;;;;5032788;28;20054;-58
2021/11/13 05:41:34;;;;;;;53.55;38.67;;;9.20;99.90;;;;;;5018770;28;20133;-58
2021/11/13 05:44:02;;;;;;;47.47;36.40;;;9.20;99.90;;;;;;5052254;28;20057;-59
2021/11/13 05:46:32;;;;;;;49.92;36.63;;;9.20;99.90;;;;;;5033707;28;20147;-59
2021/11/13 05:48:58;;;;;;;54.08;38.92;;;9.30;99.90;;;;;;5051039;28;20045;-59
2021/11/13 05:51:24;;;;;;;50.38;37.40;;;9.30;99.90;;;;;;5051549;28;20099;-59
2021/11/13 05:53:51;;;;;;;53.90;38.13;;;9.30;99.90;;;;;;5049389;28;20056;-59
2021/11/13 05:56:17;;;;;;;51.13;37.60;;;9.30;99.90;;;;;;5049527;28;20124;-48
2021/11/13 05:58:43;;;;;;;52.45;37.38;;;9.30;99.90;;;;;;5050188;28;20060;-52
2021/11/13 06:01:09;;;;;;;48.28;36.00;;;9.30;99.90;;;;;;5051257;28;20053;-59
2021/11/13 06:03:39;;;;;;;51.72;38.28;;;9.30;99.90;;;;;;5033332;28;20488;-59
2021/11/13 06:06:05;;;;;;;48.75;34.88;;;9.30;99.90;;;;;;5051214;28;20053;-58
2021/11/13 06:08:31;;;;;;;50.58;37.00;;;9.40;99.90;;;;;;5049103;28;20519;-59
2021/11/13 06:10:58;;;;;;;48.17;35.38;;;9.30;99.90;;;;;;5051009;28;20045;-59
2021/11/13 06:13:24;;;;;;;44.10;35.50;;;9.30;99.90;;;;;;5049255;28;20041;-59
2021/11/13 06:15:51;;;;;;;54.50;36.70;;;9.30;99.90;;;;;;5046025;28;20114;-47
2021/11/13 06:18:21;;;;;;;43.67;33.92;;;9.40;99.90;;;;;;5050367;28;20053;-47
2021/11/13 06:20:53;;;;;;;44.45;34.85;;;9.30;99.90;;;;;;5051035;28;20506;-46
2021/11/13 06:23:19;;;;;;;49.20;37.38;;;9.30;99.90;;;;;;5032560;28;20056;-46
2021/11/13 06:25:44;;;;;;;46.05;35.25;;;9.40;99.90;;;;;;5049112;28;20049;-47
2021/11/13 06:28:11;;;;;;;42.63;33.58;;;9.30;99.90;;;;;;5050608;28;20041;-47
2021/11/13 06:30:37;;;;;;;42.08;33.17;;;9.40;99.90;;;;;;5032828;28;20041;-48
2021/11/13 06:33:03;;;;;;;41.33;34.13;;;9.30;99.90;;;;;;5027582;28;20063;-50
2021/11/13 06:35:29;;;;;;;41.40;32.85;;;9.40;99.90;;;;;;5050554;28;20396;-49
2021/11/13 06:37:56;;;;;;;44.47;33.90;;;9.40;99.90;;;;;;5050049;28;20045;-46
2021/11/13 06:40:30;;;;;;;40.53;32.75;;;9.40;99.90;;;;;;5050029;28;20049;-47
2021/11/13 06:42:58;;;;;;;44.50;32.83;;;9.40;99.90;;;;;;5050417;28;20045;-47
2021/11/13 06:45:26;;;;;;;46.50;34.28;;;9.40;99.90;;;;;;4976425;28;1134637;-49
2021/11/13 06:47:53;;;;;;;43.28;33.28;;;9.40;99.90;;;;;;5065746;28;20044;-46
2021/11/13 06:50:19;;;;;;;41.08;33.13;;;9.40;99.90;;;;;;5056625;28;20050;-48
2021/11/13 06:52:45;;;;;;;42.15;32.70;;;9.40;99.90;;;;;;5029785;28;20091;-46
2021/11/13 06:55:12;;;;;;;43.75;32.45;;;9.40;99.90;;;;;;5031543;28;20053;-45
2021/11/13 06:57:39;;;;;;;40.47;32.28;;;9.40;99.90;;;;;;5031379;28;20053;-50
2021/11/13 07:00:08;;;;;;;41.97;34.17;;;9.50;99.90;;;;;;5030743;28;20092;-50
2021/11/13 07:02:35;;;;;;;42.65;32.53;;;9.40;99.90;;;;;;5029427;28;20042;-47
2021/11/13 07:05:02;;;;;;;41.75;31.88;;;9.50;99.90;;;;;;5030090;28;20132;-46
2021/11/13 07:07:32;;;;;;;43.42;33.63;;;9.50;99.90;;;;;;5031397;28;20107;-46
2021/11/13 07:10:03;;;;;;;44.88;32.75;;;9.50;99.90;;;;;;5030932;28;20056;-47
2021/11/13 07:12:30;;;;;;;46.33;34.50;;;9.50;99.90;;;;;;5029097;28;20045;-49
2021/11/13 07:14:56;;;;;;;50.10;35.60;;;9.50;99.90;;;;;;5038163;28;20051;-45
2021/11/13 07:17:22;;;;;;;51.90;37.08;;;9.50;99.90;;;;;;5050391;28;20044;-46
2021/11/13 07:19:48;;;;;;;52.67;37.65;;;9.50;99.90;;;;;;5032684;28;20052;-51
2021/11/13 07:22:15;;;;;;;49.13;38.05;;;9.50;99.90;;;;;;5050497;28;20460;-49
2021/11/13 07:24:42;;;;;;;52.13;37.78;;;9.60;99.90;;;;;;5037546;28;20125;-58
2021/11/13 07:27:11;;;;;;;55.55;39.00;;;9.50;99.90;;;;;;5030930;28;20144;-58
2021/11/13 07:29:44;;;;;;;51.95;38.45;;;9.60;99.90;;;;;;5029512;28;20045;-58
2021/11/13 07:32:12;;;;;;;54.28;38.08;;;9.60;99.90;;;;;;5030494;28;20041;-58
2021/11/13 07:34:38;;;;;;;59.60;39.55;;;9.60;99.90;;;;;;5029792;28;20065;-58
2021/11/13 07:37:09;;;;;;;57.63;38.45;;;9.60;99.90;;;;;;5029115;28;20124;-50
2021/11/13 07:39:35;;;;;;;54.67;38.55;;;9.70;99.90;;;;;;5030346;28;20045;-47
2021/11/13 07:42:01;;;;;;;54.45;38.60;;;9.70;99.90;;;;;;5029921;28;20050;-51
2021/11/13 07:44:27;;;;;;;56.22;38.50;;;9.70;99.90;;;;;;5030212;28;20054;-46
2021/11/13 07:46:55;;;;;;;54.08;38.95;;;9.70;99.90;;;;;;5028974;28;20094;-52
2021/11/13 07:49:22;;;;;;;59.33;39.38;;;9.70;99.90;;;;;;5031629;28;20041;-49
2021/11/13 07:51:48;;;;;;;52.53;38.20;;;9.70;99.90;;;;;;5028420;28;20096;-49
2021/11/13 07:54:15;;;;;;;53.70;40.10;;;9.80;99.90;;;;;;5028718;28;20517;-48
2021/11/13 07:56:41;;;;;;;59.28;39.70;;;9.80;99.90;;;;;;5030698;28;20052;-46
2021/11/13 07:59:07;;;;;;;59.90;39.30;;;9.80;99.90;;;;;;5029813;28;20051;-59
2021/11/13 08:01:33;;;;;;;50.15;37.20;;;9.80;99.90;;;;;;5029777;28;20052;-60
2021/11/13 08:04:00;;;;;;;49.80;36.75;;;9.80;99.90;;;;;;5030301;28;20099;-45
2021/11/13 08:06:26;;;;;;;48.53;37.55;;;9.80;99.90;;;;;;5050245;28;20521;-46
2021/11/13 08:08:52;;;;;;;48.17;36.53;;;9.90;99.90;;;;;;5048548;28;20060;-46
2021/11/13 08:11:18;;;;;;;50.15;36.33;;;9.80;99.90;;;;;;5049641;28;20036;-44
2021/11/13 08:13:44;;;;;;;51.85;37.13;;;9.90;99.90;;;;;;5049674;28;20119;-43
2021/11/13 08:16:10;;;;;;;47.08;34.45;;;9.90;99.90;;;;;;5047076;28;20084;-59
2021/11/13 08:18:36;;;;;;;52.25;37.00;;;9.90;99.90;;;;;;5049659;28;20087;-59
2021/11/13 08:21:03;;;;;;;51.28;36.60;;;9.90;99.90;;;;;;5049370;28;20055;-59
2021/11/13 08:23:31;;;;;;;48.67;34.53;;;9.90;99.90;;;;;;5049587;28;20052;-59
2021/11/13 08:25:57;;;;;;;53.03;37.25;;;9.90;99.90;;;;;;5048034;28;20037;-59
2021/11/13 08:28:24;;;;;;;55.85;37.67;;;9.90;99.90;;;;;;5049441;28;20479;-59
2021/11/13 08:30:52;;;;;;;52.97;37.10;;;9.90;99.90;;;;;;5048563;28;20049;-53
2021/11/13 08:33:20;;;;;;;50.00;38.45;;;9.90;99.90;;;;;;5046393;28;20385;-45
2021/11/13 08:35:48;;;;;;;46.42;35.50;;;9.90;99.90;;;;;;5049769;28;20544;-44
2021/11/13 08:38:17;;;;;;;57.03;39.17;;;9.90;99.90;;;;;;5049163;28;20049;-43
2021/11/13 08:40:48;;;;;;;54.65;37.72;;;9.90;99.90;;;;;;5014159;28;20051;-60
2021/11/13 08:43:15;;;;;;;53.20;36.78;;;9.90;99.90;;;;;;5049030;28;20056;-59
2021/11/13 08:45:42;;;;;;;55.13;37.50;;;10.00;99.90;;;;;;5049432;28;20114;-48
2021/11/13 08:48:09;;;;;;;55.95;38.45;;;10.00;99.90;;;;;;5047614;28;20049;-45
2021/11/13 08:50:35;;;;;;;54.58;38.50;;;10.00;99.90;;;;;;5028954;28;20056;-45
2021/11/13 08:53:03;;;;;;;58.00;38.45;;;10.00;99.90;;;;;;5029104;28;20088;-59
2021/11/13 08:55:32;;;;;;;51.92;37.88;;;10.10;99.90;;;;;;5029055;28;20060;-60
2021/11/13 08:57:59;;;;;;;55.45;39.05;;;10.00;99.90;;;;;;5027823;28;20157;-60
2021/11/13 09:00:42;;;;;;;47.90;35.78;;;10.10;99.90;;;;;;5028714;28;20045;-60
2021/11/13 09:03:13;;;;;;;52.85;38.63;;;10.20;99.90;;;;;;5038755;28;20045;-60
2021/11/13 09:05:40;;;;;;;48.85;36.22;;;10.20;99.90;;;;;;5044296;28;20204;-60
2021/11/13 09:08:07;;;;;;;45.85;37.70;;;10.30;99.90;;;;;;5029336;28;20041;-59
2021/11/13 09:10:34;;;;;;;51.67;37.78;;;10.30;99.90;;;;;;5027972;28;20459;-59
2021/11/13 09:13:00;;;;;;;48.78;35.35;;;10.30;99.90;;;;;;5029554;28;20354;-46
2021/11/13 09:15:29;;;;;;;46.00;36.45;;;10.40;99.90;;;;;;5039469;28;20041;-47
2021/11/13 09:17:56;;;;;;;47.88;36.50;;;10.40;99.90;;;;;;5047703;28;20136;-60
2021/11/13 09:20:24;;;;;;;43.63;33.53;;;10.50;99.90;;;;;;5048884;28;20052;-60
2021/11/13 09:22:51;;;;;;;42.92;33.72;;;10.50;99.90;;;;;;5043474;28;20064;-60
2021/11/13 09:25:20;;;;;;;44.53;36.33;;;10.50;99.90;;;;;;5029078;28;20484;-60
2021/11/13 09:27:49;;;;;;;44.22;36.03;;;10.60;99.90;;;;;;5027954;28;20041;-60
2021/11/13 09:30:18;;;;;;;41.28;32.17;;;10.60;99.90;;;;;;5032672;28;20053;-59
2021/11/13 09:32:47;;;;;;;39.22;34.58;;;10.60;99.90;;;;;;5032949;28;20041;-44
2021/11/13 09:35:15;;;;;;;41.88;32.67;;;10.60;99.90;;;;;;5032539;28;20050;-46
2021/11/13 09:37:46;;;;;;;38.22;29.60;;;10.60;99.90;;;;;;5031326;28;20504;-60
2021/11/13 09:40:12;;;;;;;36.72;30.30;;;10.60;99.90;;;;;;5031767;28;20090;-60
2021/11/13 09:42:38;;;;;;;41.83;31.65;;;10.60;99.90;;;;;;5032726;28;20052;-59
2021/11/13 09:45:06;;;;;;;35.75;29.98;;;10.70;99.90;;;;;;5031056;28;20065;-59
2021/11/13 09:47:34;;;;;;;28.20;25.20;;;10.70;99.90;;;;;;5031045;28;20049;-60
2021/11/13 09:50:06;;;;;;;34.20;29.23;;;10.70;99.90;;;;;;5048289;28;20428;-45
2021/11/13 09:52:32;;;;;;;31.48;27.55;;;10.80;99.90;;;;;;5052139;28;20411;-46
2021/11/13 09:55:02;;;;;;;28.33;25.20;;;10.80;99.90;;;;;;5051993;28;20442;-45
2021/11/13 09:57:28;;;;;;;31.20;25.55;;;10.80;99.90;;;;;;5039533;28;20045;-45
2021/11/13 09:59:54;;;;;;;27.65;24.23;;;10.80;99.90;;;;;;5030580;28;20080;-46
2021/11/13 10:02:20;;;;;;;25.65;22.00;;;10.80;99.90;;;;;;5031588;28;20084;-59
2021/11/13 10:04:46;;;;;;;28.90;22.75;;;10.80;99.90;;;;;;5030920;28;20049;-60
2021/11/13 10:07:13;;;;;;;27.20;21.83;;;10.80;99.90;;;;;;5030496;28;20037;-59
2021/11/13 10:09:39;;;;;;;25.83;22.23;;;10.80;99.90;;;;;;5014329;28;20118;-59
2021/11/13 10:12:06;;;;;;;28.35;23.30;;;10.80;99.90;;;;;;5031843;28;20116;-60
2021/11/13 10:14:43;;;;;;;28.17;22.55;;;10.80;99.90;;;;;;5051569;28;20504;-59
2021/11/13 10:17:25;;;;;;;26.15;22.23;;;10.80;99.90;;;;;;5050479;28;20120;-59
2021/11/13 10:19:52;;;;;;;23.55;20.88;;;10.70;99.90;;;;;;5066547;28;20136;-60
2021/11/13 10:22:20;;;;;;;26.35;22.08;;;10.80;99.90;;;;;;5049945;28;20125;-59
2021/11/13 10:24:48;;;;;;;27.23;22.13;;;10.80;99.90;;;;;;5051411;28;20488;-59
2021/11/13 10:27:15;;;;;;;30.52;22.60;;;10.80;99.90;;;;;;5049592;28;20057;-59
2021/11/13 10:29:44;;;;;;;28.33;22.45;;;10.70;99.90;;;;;;5049912;28;20139;-59
2021/11/13 10:32:13;;;;;;;28.40;22.83;;;10.80;99.90;;;;;;5016854;28;20056;-59
2021/11/13 10:34:44;;;;;;;29.40;21.08;;;10.80;99.90;;;;;;5029578;28;20080;-60
2021/11/13 10:37:23;;;;;;;31.70;23.37;;;10.80;99.90;;;;;;5014095;28;20045;-59
2021/11/13 10:39:55;;;;;;;29.00;23.02;;;10.80;99.90;;;;;;5028352;28;20304;-59
2021/11/13 10:42:22;;;;;;;29.00;21.92;;;10.80;99.90;;;;;;5031316;28;20049;-59
2021/11/13 10:44:51;;;;;;;30.10;24.02;;;10.90;99.90;;;;;;5030954;28;20049;-60
2021/11/13 10:47:19;;;;;;;32.17;23.40;;;10.80;99.90;;;;;;5030754;28;20042;-60
2021/11/13 10:49:47;;;;;;;31.65;23.75;;;10.90;99.90;;;;;;5049818;28;20424;-59
2021/11/13 10:52:15;;;;;;;32.78;25.00;;;10.90;99.90;;;;;;5049895;28;20037;-59
2021/11/13 10:54:43;;;;;;;28.52;23.85;;;10.90;99.90;;;;;;5016149;28;20080;-60
2021/11/13 10:57:09;;;;;;;32.75;23.30;;;10.90;99.90;;;;;;5066999;28;20407;-60
2021/11/13 10:59:38;;;;;;;29.10;22.80;;;10.90;99.90;;;;;;5051440;28;20045;-59
2021/11/13 11:02:08;;;;;;;30.13;22.30;;;10.90;99.90;;;;;;5050888;28;20056;-59
2021/11/13 11:04:38;;;;;;;30.52;22.73;;;10.90;99.90;;;;;;5032725;28;20121;-59
2021/11/13 11:07:08;;;;;;;32.67;24.75;;;10.90;99.90;;;;;;5049954;28;20052;-59
2021/11/13 11:09:43;;;;;;;28.52;23.38;;;11.00;99.90;;;;;;5032796;28;20064;-59
2021/11/13 11:12:11;;;;;;;26.60;22.13;;;11.00;99.90;;;;;;5051370;28;20495;-59
2021/11/13 11:14:44;;;;;;;26.77;22.88;;;11.00;99.90;;;;;;5066292;28;20472;-59
2021/11/13 11:17:15;;;;;;;28.63;23.17;;;11.00;99.90;;;;;;5051117;28;20045;-60
2021/11/13 11:19:45;;;;;;;31.10;22.90;;;11.00;99.90;;;;;;5051427;28;20131;-59
2021/11/13 11:22:13;;;;;;;28.08;22.38;;;11.00;99.90;;;;;;5023753;28;20501;-60
2021/11/13 11:24:42;;;;;;;32.90;24.92;;;11.00;99.90;;;;;;5029859;28;20117;-60
2021/11/13 11:27:13;;;;;;;29.55;22.83;;;11.00;99.90;;;;;;5030547;28;20120;-59
2021/11/13 11:29:57;;;;;;;30.75;23.58;;;11.00;99.90;;;;;;5012848;28;20045;-59
2021/11/13 11:32:35;;;;;;;33.63;24.27;;;11.00;99.90;;;;;;5029529;28;20116;-60
2021/11/13 11:35:07;;;;;;;29.23;23.35;;;11.00;99.90;;;;;;5030884;28;20282;-49
2021/11/13 11:37:39;;;;;;;31.98;22.25;;;11.00;99.90;;;;;;5029165;28;20531;-44
2021/11/13 11:40:11;;;;;;;35.13;25.08;;;11.00;99.90;;;;;;5031115;28;20049;-59
2021/11/13 11:42:38;;;;;;;;;;;11.00;99.90;;;;;;5029355;28;20045;-60
2021/11/13 11:45:05;;;;;;;32.47;24.77;;;11.00;99.90;;;;;;5030233;28;19956;-60
2021/11/13 11:47:33;;;;;;;36.38;24.77;;;11.00;99.90;;;;;;5030212;28;20169;-59
2021/11/13 11:50:06;;;;;;;31.75;25.00;;;11.00;99.90;;;;;;5028928;28;20463;-59
2021/11/13 11:52:32;;;;;;;35.03;25.80;;;11.00;99.90;;;;;;5029471;28;20045;-60
2021/11/13 11:54:58;;;;;;;34.20;25.45;;;11.10;99.90;;;;;;5028179;28;20497;-60
2021/11/13 11:57:37;;;;;;;36.40;25.77;;;11.10;99.90;;;;;;5030494;28;20052;-45
2021/11/13 12:00:11;;;;;;;29.00;24.48;;;11.20;99.90;;;;;;5030171;28;20133;-60
2021/11/13 12:02:46;;;;;;;33.60;26.42;;;11.20;99.90;;;;;;5029596;28;20053;-46
2021/11/13 12:05:19;;;;;;;33.25;25.95;;;11.20;99.90;;;;;;5041872;28;20123;-48
2021/11/13 12:07:47;;;;;;;31.70;24.60;;;11.20;99.90;;;;;;5049465;28;20072;-59
2021/11/13 12:10:23;;;;;;;36.25;26.88;;;11.20;99.90;;;;;;5049763;28;20040;-59
2021/11/13 12:13:11;;;;;;;33.97;26.65;;;11.20;99.90;;;;;;5043943;28;20056;-49
2021/11/13 12:15:43;;;;;;;32.67;26.17;;;11.30;99.90;;;;;;5029898;28;20041;-59
2021/11/13 12:18:15;;;;;;;;;;;11.30;99.90;;;;;;5030186;28;20037;-59
2021/11/13 12:20:42;;;;;;;;;;;11.30;99.90;;;;;;5028740;28;20308;-59
2021/11/13 12:23:14;;;;;;;34.40;25.88;;;11.20;99.90;;;;;;5028196;28;19917;-48
2021/11/13 12:25:41;;;;;;;;;;;11.30;99.90;;;;;;5028034;28;20350;-50
2021/11/13 12:28:21;;;;;;;34.97;26.00;;;11.20;99.90;;;;;;5029283;28;19921;-49
2021/11/13 12:31:05;;;;;;;36.28;28.40;;;11.20;99.90;;;;;;5029550;28;20049;-47
2021/11/13 12:33:39;;;;;;;35.65;27.35;;;11.20;99.90;;;;;;5027455;28;20095;-45
2021/11/13 12:36:18;;;;;;;33.78;26.63;;;11.20;99.90;;;;;;5028073;28;20053;-46
2021/11/13 12:38:55;;;;;;;35.20;27.02;;;11.20;99.90;;;;;;5029241;28;20049;-46